createdAt,value
2023-03-08T00:01:34.382Z,15.50
2023-03-08T00:04:04.610Z,16.40
2023-03-08T00:06:33.215Z,16.60
2023-03-08T00:09:06.246Z,16.00
2023-03-08T00:11:34.488Z,15.80
2023-03-08T00:14:03.669Z,15.60
2023-03-08T00:16:31.914Z,16.20
2023-03-08T00:19:00.122Z,16.20
2023-03-08T00:21:28.366Z,16.50
2023-03-08T00:23:59.806Z,16.60
2023-03-08T00:26:28.206Z,15.70
2023-03-08T00:28:57.127Z,15.50
2023-03-08T00:31:26.621Z,15.60
2023-03-08T00:33:55.356Z,15.00
2023-03-08T00:36:26.014Z,13.40
2023-03-08T00:38:56.290Z,16.50
2023-03-08T00:41:24.545Z,16.40
2023-03-08T00:43:53.021Z,16.70
2023-03-08T00:46:21.743Z,17.10
2023-03-08T00:48:52.284Z,17.20
2023-03-08T00:51:20.851Z,18.40
2023-03-08T00:53:55.908Z,16.10
2023-03-08T00:56:24.253Z,16.90
2023-03-08T00:58:52.794Z,16.80
2023-03-08T01:01:21.120Z,18.50
2023-03-08T01:03:51.236Z,17.00
2023-03-08T01:06:20.219Z,16.10
2023-03-08T01:08:50.125Z,16.30
2023-03-08T01:11:23.962Z,16.80
2023-03-08T01:13:52.426Z,15.80
2023-03-08T01:16:31.311Z,16.90
2023-03-08T01:19:01.408Z,15.90
2023-03-08T01:21:30.735Z,15.50
2023-03-08T01:23:58.956Z,16.00
2023-03-08T01:26:31.088Z,16.00
2023-03-08T01:28:59.600Z,15.50
2023-03-08T01:31:30.204Z,17.70
2023-03-08T01:34:02.025Z,16.60
2023-03-08T01:36:30.777Z,16.90
2023-03-08T01:39:01.218Z,15.50
2023-03-08T01:41:30.976Z,15.20
2023-03-08T01:44:03.694Z,15.10
2023-03-08T01:46:34.443Z,14.20
2023-03-08T01:49:29.306Z,14.90
2023-03-08T01:52:07.273Z,15.70
2023-03-08T01:54:57.022Z,15.90
2023-03-08T01:57:28.455Z,15.40
2023-03-08T01:59:59.097Z,14.00
2023-03-08T02:02:30.071Z,14.00
2023-03-08T02:04:58.423Z,14.00
2023-03-08T02:07:27.529Z,14.20
2023-03-08T02:09:56.162Z,14.50
2023-03-08T02:12:24.440Z,14.40
2023-03-08T02:14:53.470Z,14.70
2023-03-08T02:17:23.903Z,14.80
2023-03-08T02:20:16.331Z,15.00
2023-03-08T02:22:46.280Z,13.90
2023-03-08T02:25:18.954Z,13.30
2023-03-08T02:27:48.941Z,13.60
2023-03-08T02:30:23.508Z,13.00
2023-03-08T02:32:51.811Z,14.20
2023-03-08T02:35:20.146Z,13.40
2023-03-08T02:37:48.461Z,14.60
2023-03-08T02:40:16.819Z,13.80
2023-03-08T02:42:46.688Z,13.00
2023-03-08T02:45:16.114Z,13.00
2023-03-08T02:47:45.725Z,12.50
2023-03-08T02:50:14.721Z,12.90
2023-03-08T02:52:44.391Z,14.20
2023-03-08T02:55:12.748Z,13.90
2023-03-08T02:57:41.462Z,12.70
2023-03-08T03:00:11.050Z,13.20
2023-03-08T03:02:40.578Z,14.00
2023-03-08T03:05:12.614Z,13.30
2023-03-08T03:07:42.974Z,12.90
2023-03-08T03:10:16.461Z,13.60
2023-03-08T03:12:45.148Z,13.70
2023-03-08T03:15:16.841Z,13.00
2023-03-08T03:17:47.665Z,13.60
2023-03-08T03:20:16.582Z,14.10
2023-03-08T03:22:47.179Z,14.30
2023-03-08T03:25:15.532Z,13.70
2023-03-08T03:27:45.125Z,15.60
2023-03-08T03:30:14.357Z,14.30
2023-03-08T03:32:42.921Z,14.80
2023-03-08T03:35:16.811Z,13.50
2023-03-08T03:37:48.201Z,14.10
2023-03-08T03:40:17.151Z,13.20
2023-03-08T03:42:49.890Z,13.30
2023-03-08T03:45:18.270Z,12.80
2023-03-08T03:47:48.212Z,14.50
2023-03-08T03:50:17.647Z,14.80
2023-03-08T03:52:59.778Z,13.20
2023-03-08T03:55:29.655Z,13.40
2023-03-08T03:58:01.310Z,13.00
2023-03-08T04:00:38.108Z,13.70
2023-03-08T04:03:14.319Z,12.90
2023-03-08T04:05:43.870Z,13.50
2023-03-08T04:08:16.149Z,13.80
2023-03-08T04:10:44.670Z,14.30
2023-03-08T04:13:12.907Z,14.10
2023-03-08T04:15:46.030Z,12.80
2023-03-08T04:18:17.572Z,13.20
2023-03-08T04:20:46.831Z,12.90
2023-03-08T04:23:15.935Z,13.30
2023-03-08T04:25:47.658Z,13.10
2023-03-08T04:28:16.631Z,12.00
2023-03-08T04:30:46.522Z,13.90
2023-03-08T04:33:16.951Z,13.00
2023-03-08T04:35:49.679Z,13.70
2023-03-08T04:38:21.688Z,10.70
2023-03-08T04:41:12.268Z,12.60
2023-03-08T04:43:57.053Z,13.80
2023-03-08T04:46:33.205Z,12.60
2023-03-08T04:49:01.586Z,13.60
2023-03-08T04:51:32.885Z,13.30
2023-03-08T04:54:04.941Z,13.60
2023-03-08T04:59:09.951Z,14.30
2023-03-08T05:01:38.267Z,14.10
2023-03-08T05:04:07.151Z,13.60
2023-03-08T05:06:38.713Z,13.20
2023-03-08T05:09:07.132Z,14.30
2023-03-08T05:11:37.237Z,14.60
2023-03-08T05:14:07.725Z,13.80
2023-03-08T05:16:36.823Z,14.50
2023-03-08T05:19:05.210Z,14.60
2023-03-08T05:21:37.138Z,15.10
2023-03-08T05:24:06.217Z,14.10
2023-03-08T05:26:41.251Z,13.70
2023-03-08T05:29:10.998Z,14.10
2023-03-08T05:31:40.204Z,14.40
2023-03-08T05:34:11.359Z,13.50
2023-03-08T05:36:42.848Z,14.70
2023-03-08T05:39:13.491Z,13.20
2023-03-08T05:42:00.742Z,13.90
2023-03-08T05:44:36.363Z,13.80
2023-03-08T05:47:05.621Z,14.20
2023-03-08T05:49:34.587Z,14.80
2023-03-08T05:52:05.581Z,14.10
2023-03-08T05:54:34.542Z,13.90
2023-03-08T05:57:06.042Z,15.50
2023-03-08T05:59:34.649Z,14.70
2023-03-08T06:02:05.005Z,13.20
2023-03-08T06:07:06.904Z,13.90
2023-03-08T06:09:39.217Z,14.60
2023-03-08T06:12:08.769Z,15.00
2023-03-08T06:14:37.015Z,15.70
2023-03-08T06:17:10.080Z,15.20
2023-03-08T06:19:39.964Z,13.90
2023-03-08T06:22:08.483Z,15.10
2023-03-08T06:24:41.707Z,15.00
2023-03-08T06:27:10.568Z,14.20
2023-03-08T06:29:39.785Z,14.60
2023-03-08T06:32:08.437Z,15.20
2023-03-08T06:34:37.889Z,14.60
2023-03-08T06:37:11.037Z,14.50
2023-03-08T06:39:40.170Z,13.90
2023-03-08T06:42:09.224Z,15.00
2023-03-08T06:44:40.010Z,15.50
2023-03-08T06:47:08.331Z,14.60
2023-03-08T06:49:38.190Z,14.40
2023-03-08T06:52:06.940Z,13.90
2023-03-08T06:54:40.345Z,13.30
2023-03-08T06:57:09.226Z,13.90
2023-03-08T06:59:37.647Z,13.20
2023-03-08T07:02:06.988Z,13.50
2023-03-08T07:04:35.731Z,12.70
2023-03-08T07:07:07.821Z,13.50
2023-03-08T07:09:36.933Z,12.50
2023-03-08T07:12:07.782Z,12.90
2023-03-08T07:14:36.676Z,13.30
2023-03-08T07:17:04.994Z,12.30
2023-03-08T07:19:33.196Z,12.90
2023-03-08T07:22:01.463Z,12.70
2023-03-08T07:24:29.883Z,13.40
2023-03-08T07:26:58.092Z,12.40
2023-03-08T07:29:26.321Z,12.60
2023-03-08T07:31:56.180Z,12.60
2023-03-08T07:34:24.996Z,12.20
2023-03-08T07:36:53.215Z,14.40
2023-03-08T07:39:23.078Z,15.70
2023-03-08T07:41:53.315Z,13.30
2023-03-08T07:44:21.613Z,13.00
2023-03-08T07:46:52.737Z,12.40
2023-03-08T07:49:21.639Z,13.70
2023-03-08T07:51:51.522Z,12.80
2023-03-08T07:54:22.368Z,12.50
2023-03-08T07:56:54.225Z,12.90
2023-03-08T07:59:23.650Z,12.50
2023-03-08T08:01:52.881Z,12.10
2023-03-08T08:04:23.428Z,12.40
2023-03-08T08:06:52.359Z,11.80
2023-03-08T08:09:20.689Z,12.20
2023-03-08T08:11:52.220Z,12.50
2023-03-08T08:14:22.659Z,12.80
2023-03-08T08:16:50.993Z,12.70
2023-03-08T08:19:19.256Z,12.00
2023-03-08T08:21:48.720Z,13.70
2023-03-08T08:24:17.070Z,11.90
2023-03-08T08:26:46.029Z,13.10
2023-03-08T08:29:14.398Z,12.50
2023-03-08T08:31:43.550Z,12.10
2023-03-08T08:34:11.824Z,12.20
2023-03-08T08:36:40.151Z,12.30
2023-03-08T08:39:09.170Z,12.70
2023-03-08T08:41:37.618Z,12.20
2023-03-08T08:44:07.855Z,12.70
2023-03-08T08:46:36.727Z,11.40
2023-03-08T08:49:05.962Z,11.10
2023-03-08T08:51:34.493Z,11.30
2023-03-08T08:54:02.954Z,11.70
2023-03-08T08:56:33.721Z,11.40
2023-03-08T08:59:02.399Z,11.20
2023-03-08T09:01:32.841Z,11.50
2023-03-08T09:04:23.012Z,12.10
2023-03-08T09:06:53.782Z,10.80
2023-03-08T09:09:23.143Z,10.60
2023-03-08T09:11:58.335Z,11.00
2023-03-08T09:14:28.051Z,11.40
2023-03-08T09:16:56.361Z,11.90
2023-03-08T09:19:24.885Z,11.30
2023-03-08T09:21:53.469Z,10.90
2023-03-08T09:24:21.597Z,10.60
2023-03-08T09:26:50.607Z,10.60
2023-03-08T09:29:19.843Z,10.30
2023-03-08T09:31:48.018Z,9.80
2023-03-08T09:34:16.851Z,10.60
2023-03-08T09:36:45.342Z,10.60
2023-03-08T09:39:13.890Z,10.90
2023-03-08T09:42:05.371Z,9.70
2023-03-08T09:45:01.527Z,10.40
2023-03-08T09:47:56.900Z,9.80
2023-03-08T09:50:41.858Z,9.80
2023-03-08T09:53:36.138Z,10.20
2023-03-08T09:56:16.292Z,9.70
2023-03-08T09:58:47.114Z,10.00
2023-03-08T10:01:27.280Z,9.90
2023-03-08T10:04:14.066Z,9.70
2023-03-08T10:06:45.951Z,9.40
2023-03-08T10:09:22.548Z,10.30
2023-03-08T10:12:13.468Z,10.60
2023-03-08T10:14:49.502Z,10.10
2023-03-08T10:17:22.875Z,10.30
2023-03-08T10:20:06.900Z,10.50
2023-03-08T10:22:42.581Z,10.90
2023-03-08T10:25:17.155Z,12.90
2023-03-08T10:27:47.803Z,10.70
2023-03-08T10:30:19.616Z,11.10
2023-03-08T10:32:50.730Z,11.00
2023-03-08T10:35:19.026Z,11.10
2023-03-08T10:38:17.204Z,10.70
2023-03-08T10:40:45.484Z,12.20
2023-03-08T10:43:39.262Z,12.20
2023-03-08T10:46:20.333Z,12.00
2023-03-08T10:48:48.694Z,10.00
2023-03-08T10:51:19.534Z,10.40
2023-03-08T10:54:02.873Z,11.50
2023-03-08T10:56:45.025Z,12.00
2023-03-08T10:59:23.873Z,12.10
2023-03-08T11:01:56.527Z,10.90
2023-03-08T11:04:26.363Z,11.20
2023-03-08T11:06:54.642Z,11.40
2023-03-08T11:09:33.662Z,10.70
2023-03-08T11:12:02.065Z,11.30
2023-03-08T11:14:30.911Z,11.80
2023-03-08T11:17:10.595Z,11.00
2023-03-08T11:20:00.761Z,12.30
2023-03-08T11:22:55.796Z,12.10
2023-03-08T11:25:49.010Z,12.10
2023-03-08T11:28:38.899Z,11.40
2023-03-08T11:31:36.589Z,11.90
2023-03-08T11:34:07.863Z,12.10
2023-03-08T11:37:02.347Z,12.10
2023-03-08T11:39:49.253Z,12.30
2023-03-08T11:42:44.918Z,12.40
2023-03-08T11:45:46.762Z,11.80
2023-03-08T11:48:37.331Z,11.70
2023-03-08T11:51:15.544Z,11.50
2023-03-08T11:53:52.703Z,12.40
2023-03-08T11:56:43.017Z,11.00
2023-03-08T11:59:36.061Z,11.60
2023-03-08T12:02:04.409Z,11.10
2023-03-08T12:04:45.599Z,10.50
2023-03-08T12:07:28.251Z,11.60
2023-03-08T12:10:15.525Z,13.20
2023-03-08T12:12:49.142Z,11.90
2023-03-08T12:15:39.131Z,11.00
2023-03-08T12:18:58.561Z,12.00
2023-03-08T12:21:34.573Z,11.70
2023-03-08T12:24:13.608Z,11.20
2023-03-08T12:26:44.890Z,11.00
2023-03-08T12:29:27.619Z,11.60
2023-03-08T12:32:01.293Z,11.50
2023-03-08T12:34:38.068Z,10.50
2023-03-08T12:37:22.583Z,10.50
2023-03-08T12:40:02.311Z,9.40
2023-03-08T12:42:36.662Z,10.00
2023-03-08T12:45:20.127Z,10.30
2023-03-08T12:48:05.271Z,10.40
2023-03-08T12:50:42.046Z,9.20
2023-03-08T12:53:36.588Z,8.70
2023-03-08T12:56:07.377Z,8.50
2023-03-08T12:58:38.569Z,9.90
2023-03-08T13:01:23.917Z,9.40
2023-03-08T13:03:53.784Z,8.60
2023-03-08T13:06:28.030Z,9.20
2023-03-08T13:09:05.007Z,8.30
2023-03-08T13:11:39.230Z,8.60
2023-03-08T13:14:41.350Z,8.60
2023-03-08T13:17:28.777Z,8.20
2023-03-08T13:20:02.780Z,7.60
2023-03-08T13:22:46.693Z,7.70
2023-03-08T13:25:35.293Z,7.60
2023-03-08T13:28:13.692Z,7.90
2023-03-08T13:30:59.203Z,6.60
2023-03-08T13:33:33.672Z,7.30
2023-03-08T13:36:04.715Z,6.40
2023-03-08T13:38:35.828Z,6.30
2023-03-08T13:41:04.409Z,6.40
2023-03-08T13:43:35.026Z,6.40
2023-03-08T13:46:05.992Z,5.80
2023-03-08T13:48:37.591Z,6.00
2023-03-08T13:51:06.072Z,5.90
2023-03-08T13:53:36.558Z,6.10
2023-03-08T13:56:05.868Z,6.20
2023-03-08T13:58:45.682Z,6.40
2023-03-08T14:01:25.236Z,6.60
2023-03-08T14:03:55.273Z,6.50
2023-03-08T14:06:34.033Z,6.40
2023-03-08T14:09:04.646Z,6.80
2023-03-08T14:11:35.102Z,6.90
2023-03-08T14:14:07.584Z,7.00
2023-03-08T14:16:37.626Z,6.50
2023-03-08T14:19:11.860Z,7.60
2023-03-08T14:22:08.325Z,7.40
2023-03-08T14:24:36.674Z,6.80
2023-03-08T14:27:16.157Z,7.20
2023-03-08T14:29:45.724Z,7.50
2023-03-08T14:32:14.101Z,8.10
2023-03-08T14:34:44.805Z,7.60
2023-03-08T14:37:19.241Z,7.40
2023-03-08T14:39:49.608Z,7.60
2023-03-08T14:42:42.166Z,7.70
2023-03-08T14:45:23.948Z,7.70
2023-03-08T14:47:58.529Z,7.60
2023-03-08T14:50:33.648Z,8.20
2023-03-08T14:53:02.537Z,8.80
2023-03-08T14:55:35.727Z,8.60
2023-03-08T14:58:13.468Z,8.50
2023-03-08T15:00:54.952Z,8.60
2023-03-08T15:03:24.039Z,7.70
2023-03-08T15:05:53.498Z,8.60
2023-03-08T15:08:22.314Z,8.90
2023-03-08T15:10:52.002Z,8.60
2023-03-08T15:13:23.494Z,8.80
2023-03-08T15:15:54.587Z,8.50
2023-03-08T15:18:23.619Z,8.20
2023-03-08T15:20:52.184Z,8.00
2023-03-08T15:23:26.658Z,8.10
2023-03-08T15:25:55.623Z,8.60
2023-03-08T15:28:24.120Z,8.00
2023-03-08T15:30:54.946Z,7.60
2023-03-08T15:33:23.844Z,8.20
2023-03-08T15:35:52.100Z,8.70
2023-03-08T15:38:21.640Z,8.20
2023-03-08T15:40:51.734Z,7.50
2023-03-08T15:43:21.176Z,8.50
2023-03-08T15:45:49.583Z,8.40
2023-03-08T15:48:21.189Z,8.60
2023-03-08T15:50:49.841Z,7.70
2023-03-08T15:53:29.652Z,8.50
2023-03-08T15:56:03.616Z,8.40
2023-03-08T15:58:32.759Z,8.70
2023-03-08T16:01:01.147Z,9.10
2023-03-08T16:03:31.313Z,9.20
2023-03-08T16:06:03.015Z,8.80
2023-03-08T16:08:31.734Z,9.10
2023-03-08T16:11:17.123Z,8.90
2023-03-08T16:13:48.680Z,8.50
2023-03-08T16:16:16.937Z,8.40
2023-03-08T16:18:48.953Z,7.70
2023-03-08T16:21:17.691Z,8.20
2023-03-08T16:23:45.936Z,9.40
2023-03-08T16:26:17.478Z,8.80
2023-03-08T16:28:46.936Z,10.20
2023-03-08T16:31:16.800Z,10.70
2023-03-08T16:33:45.957Z,9.40
2023-03-08T16:36:14.257Z,10.30
2023-03-08T16:38:43.617Z,9.20
2023-03-08T16:41:14.219Z,7.80
2023-03-08T16:43:48.873Z,9.30
2023-03-08T16:46:22.464Z,9.30
2023-03-08T16:48:54.668Z,9.20
2023-03-08T16:51:26.369Z,11.50
2023-03-08T16:53:54.899Z,14.80
2023-03-08T16:56:27.908Z,14.30
2023-03-08T16:58:59.570Z,14.60
2023-03-08T17:01:30.853Z,15.50
2023-03-08T17:03:59.235Z,13.70
2023-03-08T17:06:29.855Z,12.00
2023-03-08T17:09:01.005Z,10.90
2023-03-08T17:11:31.833Z,10.30
2023-03-08T17:14:05.804Z,9.30
2023-03-08T17:16:35.680Z,9.30
2023-03-08T17:19:07.394Z,11.50
2023-03-08T17:21:38.672Z,10.20
2023-03-08T17:24:13.295Z,9.50
2023-03-08T17:26:45.860Z,9.10
2023-03-08T17:29:14.436Z,9.80
2023-03-08T17:31:42.917Z,9.80
2023-03-08T17:34:11.188Z,9.60
2023-03-08T17:36:39.983Z,10.20
2023-03-08T17:39:09.293Z,9.60
2023-03-08T17:41:38.794Z,11.20
2023-03-08T17:44:07.033Z,11.30
2023-03-08T17:46:35.416Z,11.10
2023-03-08T17:49:04.080Z,11.80
2023-03-08T17:51:33.239Z,11.70
2023-03-08T17:54:03.409Z,12.80
2023-03-08T17:56:36.656Z,12.10
2023-03-08T17:59:08.523Z,13.20
2023-03-08T18:01:38.346Z,13.30
2023-03-08T18:04:08.780Z,13.40
2023-03-08T18:06:41.657Z,13.60
2023-03-08T18:09:14.709Z,14.20
2023-03-08T18:11:48.342Z,17.00
2023-03-08T18:14:16.690Z,24.90
2023-03-08T18:16:45.168Z,37.40
2023-03-08T18:19:16.938Z,38.60
2023-03-08T18:21:54.174Z,45.40
2023-03-08T18:24:22.432Z,47.80
2023-03-08T18:26:53.284Z,46.00
2023-03-08T18:29:22.175Z,39.40
2023-03-08T18:31:50.383Z,30.40
2023-03-08T18:34:18.955Z,24.00
2023-03-08T18:36:50.220Z,19.50
2023-03-08T18:39:18.417Z,17.60
2023-03-08T18:41:46.601Z,15.90
2023-03-08T18:44:17.647Z,15.30
2023-03-08T18:46:46.763Z,15.70
2023-03-08T18:49:16.052Z,14.80
2023-03-08T18:51:44.552Z,15.20
2023-03-08T18:54:20.897Z,14.70
2023-03-08T18:56:50.083Z,14.40
2023-03-08T18:59:18.467Z,17.80
2023-03-08T19:01:46.744Z,17.80
2023-03-08T19:04:15.286Z,17.70
2023-03-08T19:06:43.471Z,17.70
2023-03-08T19:09:14.584Z,19.50
2023-03-08T19:11:42.966Z,19.40
2023-03-08T19:14:12.139Z,20.80
2023-03-08T19:16:42.152Z,21.40
2023-03-08T19:19:14.555Z,25.50
2023-03-08T19:21:46.910Z,27.60
2023-03-08T19:24:18.619Z,27.50
2023-03-08T19:26:50.584Z,30.70
2023-03-08T19:29:28.850Z,41.80
2023-03-08T19:32:01.886Z,40.10
2023-03-08T19:34:34.209Z,32.10
2023-03-08T19:37:04.864Z,40.20
2023-03-08T19:39:35.147Z,38.70
2023-03-08T19:42:06.090Z,40.40
2023-03-08T19:44:35.426Z,43.60
2023-03-08T19:47:10.226Z,49.70
2023-03-08T19:49:40.045Z,65.40
2023-03-08T19:52:12.494Z,66.20
2023-03-08T19:54:44.582Z,66.50
2023-03-08T19:57:14.999Z,76.50
2023-03-08T19:59:44.841Z,75.10
2023-03-08T20:02:14.160Z,72.30
2023-03-08T20:04:43.242Z,60.50
2023-03-08T20:07:13.151Z,65.40
2023-03-08T20:09:42.881Z,64.20
2023-03-08T20:12:11.552Z,66.90
2023-03-08T20:14:41.396Z,62.40
2023-03-08T20:17:09.591Z,55.40
2023-03-08T20:19:42.112Z,51.50
2023-03-08T20:22:10.908Z,47.90
2023-03-08T20:24:43.826Z,38.40
2023-03-08T20:27:12.291Z,32.60
2023-03-08T20:29:40.997Z,28.10
2023-03-08T20:32:09.387Z,26.60
2023-03-08T20:34:39.789Z,35.90
2023-03-08T20:37:10.151Z,39.30
2023-03-08T20:39:39.117Z,40.10
2023-03-08T20:42:08.185Z,36.40
2023-03-08T20:44:37.274Z,36.20
2023-03-08T20:47:05.799Z,37.20
2023-03-08T20:49:34.107Z,36.10
2023-03-08T20:52:02.775Z,35.00
2023-03-08T20:54:32.400Z,35.40
2023-03-08T20:57:00.636Z,30.40
2023-03-08T20:59:29.099Z,36.10
2023-03-08T21:01:57.446Z,36.40
2023-03-08T21:04:25.985Z,31.10
2023-03-08T21:06:55.880Z,26.80
2023-03-08T21:09:24.731Z,23.00
2023-03-08T21:11:53.879Z,22.40
2023-03-08T21:14:29.172Z,21.00
2023-03-08T21:16:57.829Z,21.90
2023-03-08T21:19:26.452Z,27.50
2023-03-08T21:21:56.734Z,28.30
2023-03-08T21:24:25.327Z,29.60
2023-03-08T21:26:54.019Z,30.30
2023-03-08T21:29:25.363Z,33.00
2023-03-08T21:31:54.223Z,38.10
2023-03-08T21:34:23.663Z,36.30
2023-03-08T21:36:52.402Z,32.30
2023-03-08T21:39:21.066Z,28.80
2023-03-08T21:41:49.563Z,26.50
2023-03-08T21:44:19.345Z,24.00
2023-03-08T21:46:49.017Z,23.80
2023-03-08T21:49:21.972Z,23.00
2023-03-08T21:51:50.452Z,23.30
2023-03-08T21:54:18.864Z,25.90
2023-03-08T21:56:47.356Z,25.60
2023-03-08T21:59:16.878Z,25.40
2023-03-08T22:01:54.145Z,26.70
2023-03-08T22:04:22.664Z,25.60
2023-03-08T22:06:50.868Z,24.90
2023-03-08T22:09:19.512Z,24.20
2023-03-08T22:11:48.712Z,25.30
2023-03-08T22:14:16.930Z,24.50
2023-03-08T22:16:45.181Z,26.50
2023-03-08T22:19:13.603Z,28.50
2023-03-08T22:21:42.023Z,28.60
2023-03-08T22:24:10.352Z,26.90
2023-03-08T22:26:43.658Z,25.00
2023-03-08T22:29:11.797Z,21.80
2023-03-08T22:31:40.466Z,20.60
2023-03-08T22:34:09.789Z,21.60
2023-03-08T22:36:37.976Z,21.50
2023-03-08T22:39:06.539Z,21.90
2023-03-08T22:41:34.860Z,21.90
2023-03-08T22:44:04.249Z,23.30
2023-03-08T22:46:34.664Z,22.10
2023-03-08T22:49:05.080Z,21.50
2023-03-08T22:51:34.645Z,19.70
2023-03-08T22:54:05.650Z,19.20
2023-03-08T22:56:34.459Z,19.40
2023-03-08T22:59:03.797Z,19.90
2023-03-08T23:01:35.361Z,19.10
2023-03-08T23:04:04.931Z,19.30
2023-03-08T23:06:34.529Z,18.80
2023-03-08T23:09:07.202Z,18.90
2023-03-08T23:11:39.171Z,18.60
2023-03-08T23:14:08.287Z,19.30
2023-03-08T23:16:41.872Z,18.60
2023-03-08T23:19:14.937Z,20.70
2023-03-08T23:21:44.650Z,19.80
2023-03-08T23:24:17.176Z,18.90
2023-03-08T23:26:48.577Z,18.70
2023-03-08T23:29:19.448Z,17.90
2023-03-08T23:31:48.069Z,18.10
2023-03-08T23:34:17.037Z,17.40
2023-03-08T23:36:45.404Z,16.50
2023-03-08T23:39:13.589Z,17.50
2023-03-08T23:41:42.398Z,18.20
2023-03-08T23:44:11.348Z,16.70
2023-03-08T23:46:39.950Z,17.50
2023-03-08T23:49:09.491Z,16.70
2023-03-08T23:51:37.636Z,16.80
2023-03-08T23:54:07.168Z,17.30
2023-03-08T23:56:38.120Z,16.70
2023-03-08T23:59:26.936Z,16.90
